createdAt,value
2022-08-24T00:01:32.218Z,99.90
2022-08-24T00:04:05.627Z,99.90
2022-08-24T00:06:36.310Z,99.90
2022-08-24T00:09:06.074Z,99.90
2022-08-24T00:11:35.860Z,99.90
2022-08-24T00:14:10.271Z,99.90
2022-08-24T00:16:40.491Z,99.90
2022-08-24T00:19:11.714Z,99.90
2022-08-24T00:21:41.598Z,99.90
2022-08-24T00:24:11.966Z,99.90
2022-08-24T00:26:41.731Z,99.90
2022-08-24T00:29:17.128Z,99.90
2022-08-24T00:31:46.808Z,99.90
2022-08-24T00:34:18.096Z,99.90
2022-08-24T00:36:53.615Z,99.90
2022-08-24T00:39:25.661Z,99.90
2022-08-24T00:41:57.712Z,99.90
2022-08-24T00:44:28.904Z,99.90
2022-08-24T00:47:06.466Z,99.90
2022-08-24T00:49:45.235Z,99.90
2022-08-24T00:52:18.229Z,99.90
2022-08-24T00:54:57.121Z,99.90
2022-08-24T00:57:32.877Z,99.90
2022-08-24T01:00:08.159Z,99.90
2022-08-24T01:02:46.116Z,99.90
2022-08-24T01:05:20.055Z,99.90
2022-08-24T01:07:51.085Z,99.90
2022-08-24T01:10:22.816Z,99.90
2022-08-24T01:13:01.072Z,99.90
2022-08-24T01:15:34.960Z,99.90
2022-08-24T01:18:22.217Z,99.90
2022-08-24T01:21:01.104Z,99.90
2022-08-24T01:23:42.027Z,99.90
2022-08-24T01:26:16.504Z,99.90
2022-08-24T01:28:47.705Z,99.90
2022-08-24T01:31:22.664Z,99.90
2022-08-24T01:33:57.278Z,99.90
2022-08-24T01:36:35.559Z,99.90
2022-08-24T01:39:12.203Z,99.90
2022-08-24T01:41:43.208Z,99.90
2022-08-24T01:44:14.204Z,99.90
2022-08-24T01:46:46.425Z,99.90
2022-08-24T01:49:18.419Z,99.90
2022-08-24T01:51:50.486Z,99.90
2022-08-24T01:54:21.302Z,99.90
2022-08-24T01:56:51.419Z,99.90
2022-08-24T01:59:21.737Z,99.90
2022-08-24T02:01:58.086Z,99.90
2022-08-24T02:04:27.569Z,99.90
2022-08-24T02:07:09.103Z,99.90
2022-08-24T02:09:39.914Z,99.90
2022-08-24T02:12:10.155Z,99.90
2022-08-24T02:14:39.840Z,99.90
2022-08-24T02:17:10.640Z,99.90
2022-08-24T02:19:43.529Z,99.90
2022-08-24T02:22:14.617Z,99.90
2022-08-24T02:24:45.329Z,99.90
2022-08-24T02:27:17.402Z,99.90
2022-08-24T02:29:47.620Z,99.90
2022-08-24T02:32:17.145Z,99.90
2022-08-24T02:34:46.542Z,99.90
2022-08-24T02:37:18.658Z,99.90
2022-08-24T02:39:54.804Z,99.90
2022-08-24T02:42:24.235Z,99.90
2022-08-24T02:44:53.867Z,99.90
2022-08-24T02:47:38.149Z,99.90
2022-08-24T02:50:10.559Z,99.90
2022-08-24T02:52:40.683Z,99.90
2022-08-24T02:55:22.829Z,99.90
2022-08-24T02:57:54.140Z,99.90
2022-08-24T03:00:27.981Z,99.90
2022-08-24T03:03:02.096Z,99.90
2022-08-24T03:05:32.945Z,99.90
2022-08-24T03:08:02.296Z,99.90
2022-08-24T03:10:34.942Z,99.90
2022-08-24T03:13:04.418Z,99.90
2022-08-24T03:15:33.921Z,99.90
2022-08-24T03:18:03.396Z,99.90
2022-08-24T03:20:37.236Z,99.90
2022-08-24T03:23:09.405Z,99.90
2022-08-24T03:25:40.358Z,99.90
2022-08-24T03:28:13.125Z,99.90
2022-08-24T03:30:48.216Z,99.90
2022-08-24T03:33:20.324Z,99.90
2022-08-24T03:35:52.744Z,99.90
2022-08-24T03:38:25.022Z,99.90
2022-08-24T03:40:58.980Z,99.90
2022-08-24T03:43:45.447Z,99.90
2022-08-24T03:46:18.507Z,99.90
2022-08-24T03:48:49.875Z,99.90
2022-08-24T03:51:23.592Z,99.90
2022-08-24T03:53:53.979Z,99.90
2022-08-24T03:56:25.155Z,99.90
2022-08-24T03:58:56.839Z,99.90
2022-08-24T04:01:27.832Z,99.90
2022-08-24T04:03:57.204Z,99.90
2022-08-24T04:06:26.745Z,99.90
2022-08-24T04:08:56.131Z,99.90
2022-08-24T04:11:29.246Z,99.90
2022-08-24T04:14:00.239Z,99.90
2022-08-24T04:16:35.082Z,99.90
2022-08-24T04:19:04.590Z,99.90
2022-08-24T04:21:38.405Z,99.90
2022-08-24T04:24:10.074Z,99.90
2022-08-24T04:26:49.303Z,99.90
2022-08-24T04:29:21.229Z,99.90
2022-08-24T04:31:50.782Z,99.90
2022-08-24T04:34:20.518Z,99.90
2022-08-24T04:36:51.514Z,99.90
2022-08-24T04:39:22.325Z,99.90
2022-08-24T04:41:55.631Z,99.90
2022-08-24T04:44:25.371Z,99.90
2022-08-24T04:47:01.131Z,99.90
2022-08-24T04:49:30.849Z,99.90
2022-08-24T04:52:07.341Z,99.90
2022-08-24T04:54:36.980Z,99.90
2022-08-24T04:57:07.701Z,99.90
2022-08-24T04:59:46.614Z,99.90
2022-08-24T05:02:26.006Z,99.90
2022-08-24T05:04:57.757Z,99.90
2022-08-24T05:07:31.592Z,99.90
2022-08-24T05:10:01.885Z,99.90
2022-08-24T05:12:38.317Z,99.90
2022-08-24T05:15:16.245Z,99.90
2022-08-24T05:17:52.121Z,99.90
2022-08-24T05:20:23.823Z,99.90
2022-08-24T05:22:56.051Z,99.90
2022-08-24T05:25:26.928Z,99.90
2022-08-24T05:28:03.685Z,99.90
2022-08-24T05:30:33.423Z,99.90
2022-08-24T05:33:02.995Z,99.90
2022-08-24T05:35:32.699Z,99.90
2022-08-24T05:38:12.658Z,99.90
2022-08-24T05:40:47.588Z,99.90
2022-08-24T05:43:27.547Z,99.90
2022-08-24T05:46:01.273Z,99.90
2022-08-24T05:48:33.672Z,99.90
2022-08-24T05:51:03.222Z,99.90
2022-08-24T05:53:35.837Z,99.90
2022-08-24T05:56:10.160Z,99.90
2022-08-24T05:58:41.602Z,99.90
2022-08-24T06:01:23.899Z,99.90
2022-08-24T06:04:01.098Z,99.90
2022-08-24T06:06:31.296Z,99.90
2022-08-24T06:09:06.457Z,99.90
2022-08-24T06:11:45.223Z,99.90
2022-08-24T06:14:27.059Z,99.90
2022-08-24T06:16:56.908Z,99.90
2022-08-24T06:19:31.913Z,99.90
2022-08-24T06:22:05.435Z,99.90
2022-08-24T06:24:58.504Z,99.90
2022-08-24T06:27:33.474Z,99.90
2022-08-24T06:30:16.201Z,99.90
2022-08-24T06:32:45.485Z,99.90
2022-08-24T06:35:21.966Z,99.90
2022-08-24T06:37:51.428Z,99.90
2022-08-24T06:40:27.149Z,99.90
2022-08-24T06:42:58.651Z,99.90
2022-08-24T06:45:33.257Z,99.90
2022-08-24T06:48:08.179Z,99.90
2022-08-24T06:50:40.623Z,99.90
2022-08-24T06:53:14.795Z,99.90
2022-08-24T06:55:54.638Z,99.90
2022-08-24T06:58:30.044Z,99.90
2022-08-24T07:01:14.350Z,99.90
2022-08-24T07:03:47.748Z,99.90
2022-08-24T07:06:18.694Z,99.90
2022-08-24T07:08:54.530Z,99.90
2022-08-24T07:11:30.922Z,99.90
2022-08-24T07:14:12.166Z,99.90
2022-08-24T07:16:45.823Z,99.90
2022-08-24T07:19:15.118Z,99.90
2022-08-24T07:21:51.348Z,99.90
2022-08-24T07:24:32.584Z,99.90
2022-08-24T07:27:02.939Z,99.90
2022-08-24T07:29:50.539Z,99.90
2022-08-24T07:32:32.501Z,99.90
2022-08-24T07:35:07.165Z,99.90
2022-08-24T07:37:41.357Z,99.90
2022-08-24T07:40:21.669Z,99.90
2022-08-24T07:42:53.835Z,99.90
2022-08-24T07:45:25.654Z,99.90
2022-08-24T07:48:12.706Z,99.90
2022-08-24T07:50:43.786Z,99.90
2022-08-24T07:53:27.955Z,99.90
2022-08-24T07:56:08.215Z,99.90
2022-08-24T07:58:39.340Z,99.90
2022-08-24T08:01:10.478Z,99.90
2022-08-24T08:03:41.460Z,99.90
2022-08-24T08:06:24.825Z,99.90
2022-08-24T08:08:59.847Z,99.90
2022-08-24T08:11:44.667Z,99.90
2022-08-24T08:14:15.871Z,99.90
2022-08-24T08:16:53.689Z,99.90
2022-08-24T08:19:32.783Z,99.90
2022-08-24T08:22:20.865Z,99.90
2022-08-24T08:24:51.843Z,99.90
2022-08-24T08:27:26.890Z,99.90
2022-08-24T08:30:00.186Z,99.90
2022-08-24T08:32:31.831Z,99.90
2022-08-24T08:35:13.498Z,99.90
2022-08-24T08:37:49.559Z,99.90
2022-08-24T08:40:36.770Z,99.90
2022-08-24T08:43:30.888Z,99.90
2022-08-24T08:46:32.152Z,99.90
2022-08-24T08:49:20.068Z,99.90
2022-08-24T08:52:30.152Z,99.90
2022-08-24T08:55:17.855Z,99.90
2022-08-24T08:58:04.364Z,99.90
2022-08-24T09:00:50.444Z,99.90
2022-08-24T09:03:41.087Z,99.90
2022-08-24T09:06:43.229Z,99.90
2022-08-24T09:09:45.539Z,99.90
2022-08-24T09:12:26.572Z,99.90
2022-08-24T09:15:35.226Z,99.90
2022-08-24T09:18:37.504Z,99.90
2022-08-24T09:21:29.825Z,99.90
2022-08-24T09:24:16.513Z,99.90
2022-08-24T09:27:03.190Z,99.90
2022-08-24T09:30:10.749Z,99.90
2022-08-24T09:32:57.344Z,99.90
2022-08-24T09:35:44.039Z,99.90
2022-08-24T09:38:26.730Z,99.90
2022-08-24T09:41:23.850Z,99.90
2022-08-24T09:44:25.190Z,99.90
2022-08-24T09:47:33.686Z,99.90
2022-08-24T09:50:28.899Z,99.90
2022-08-24T09:53:43.901Z,99.90
2022-08-24T09:56:25.537Z,99.90
2022-08-24T09:59:30.825Z,99.90
2022-08-24T10:02:21.935Z,99.90
2022-08-24T10:05:08.874Z,99.90
2022-08-24T10:08:08.188Z,99.90
2022-08-24T10:10:47.763Z,99.90
2022-08-24T10:13:36.241Z,99.90
2022-08-24T10:16:32.218Z,99.90
2022-08-24T10:19:22.078Z,99.90
2022-08-24T10:22:00.754Z,99.90
2022-08-24T10:25:10.868Z,99.90
2022-08-24T10:28:14.815Z,99.90
2022-08-24T10:31:15.201Z,99.90
2022-08-24T10:34:04.215Z,99.90
2022-08-24T10:37:14.941Z,99.90
2022-08-24T10:40:09.541Z,99.90
2022-08-24T10:43:28.044Z,99.90
2022-08-24T10:46:42.518Z,99.90
2022-08-24T10:49:51.869Z,99.50
2022-08-24T10:52:52.115Z,99.90
2022-08-24T10:55:36.718Z,99.50
2022-08-24T10:58:36.519Z,99.50
2022-08-24T11:01:23.868Z,98.80
2022-08-24T11:04:03.299Z,98.20
2022-08-24T11:06:45.651Z,98.00
2022-08-24T11:09:22.141Z,98.30
2022-08-24T11:11:55.152Z,97.30
2022-08-24T11:14:34.981Z,96.20
2022-08-24T11:17:22.860Z,96.80
2022-08-24T11:19:57.783Z,95.60
2022-08-24T11:22:44.878Z,94.90
2022-08-24T11:25:27.571Z,94.60
2022-08-24T11:28:11.594Z,94.50
2022-08-24T11:30:51.607Z,94.40
2022-08-24T11:33:38.016Z,93.90
2022-08-24T11:36:25.163Z,94.00
2022-08-24T11:39:21.690Z,94.00
2022-08-24T11:42:18.474Z,93.50
2022-08-24T11:44:56.254Z,92.90
2022-08-24T11:48:07.065Z,93.30
2022-08-24T11:50:51.214Z,92.20
2022-08-24T11:53:46.578Z,92.00
2022-08-24T11:56:29.625Z,91.70
2022-08-24T11:59:22.667Z,92.10
2022-08-24T12:01:56.615Z,91.70
2022-08-24T12:04:50.992Z,90.60
2022-08-24T12:07:38.992Z,90.60
2022-08-24T12:10:32.151Z,90.60
2022-08-24T12:13:15.090Z,90.60
2022-08-24T12:15:55.463Z,89.30
2022-08-24T12:18:38.904Z,89.40
2022-08-24T12:21:21.237Z,89.80
2022-08-24T12:24:08.054Z,90.00
2022-08-24T12:26:48.499Z,89.20
2022-08-24T12:29:32.310Z,86.10
2022-08-24T12:32:12.639Z,84.80
2022-08-24T12:34:59.031Z,84.50
2022-08-24T12:37:33.385Z,85.30
2022-08-24T12:40:18.767Z,85.30
2022-08-24T12:42:56.961Z,85.60
2022-08-24T12:45:30.478Z,85.10
2022-08-24T12:48:25.116Z,84.60
2022-08-24T12:51:14.555Z,83.90
2022-08-24T12:54:02.085Z,85.80
2022-08-24T12:57:11.231Z,83.10
2022-08-24T12:59:54.882Z,84.20
2022-08-24T13:02:47.946Z,83.60
2022-08-24T13:05:24.544Z,85.40
2022-08-24T13:07:58.798Z,83.50
2022-08-24T13:10:45.803Z,82.40
2022-08-24T13:13:29.371Z,81.80
2022-08-24T13:16:09.889Z,82.20
2022-08-24T13:18:56.459Z,82.00
2022-08-24T13:21:46.749Z,80.60
2022-08-24T13:24:45.428Z,79.90
2022-08-24T13:27:56.158Z,79.40
2022-08-24T13:30:48.211Z,80.80
2022-08-24T13:33:33.753Z,78.40
2022-08-24T13:36:51.194Z,78.40
2022-08-24T13:39:48.511Z,77.80
2022-08-24T13:45:53.122Z,77.50
2022-08-24T13:48:55.051Z,77.10
2022-08-24T13:51:40.308Z,77.90
2022-08-24T13:54:25.155Z,78.20
2022-08-24T13:57:29.297Z,77.40
2022-08-24T14:00:46.828Z,78.40
2022-08-24T14:03:57.099Z,78.00
2022-08-24T14:06:41.025Z,78.40
2022-08-24T14:09:48.884Z,79.90
2022-08-24T14:13:03.587Z,79.80
2022-08-24T14:16:13.883Z,79.50
2022-08-24T14:19:01.935Z,78.70
2022-08-24T14:21:41.930Z,78.40
2022-08-24T14:24:32.664Z,77.60
2022-08-24T14:27:37.563Z,76.20
2022-08-24T14:30:50.295Z,76.10
2022-08-24T14:33:48.130Z,77.00
2022-08-24T14:36:28.009Z,77.70
2022-08-24T14:39:12.377Z,77.80
2022-08-24T14:41:54.631Z,77.10
2022-08-24T14:44:47.775Z,76.70
2022-08-24T14:47:28.955Z,79.30
2022-08-24T14:50:12.822Z,78.30
2022-08-24T14:53:06.509Z,77.00
2022-08-24T14:55:46.606Z,76.30
2022-08-24T14:58:36.632Z,77.20
2022-08-24T15:01:30.443Z,75.90
2022-08-24T15:04:30.718Z,76.20
2022-08-24T15:07:32.804Z,75.40
2022-08-24T15:10:06.435Z,75.30
2022-08-24T15:12:49.498Z,74.60
2022-08-24T15:15:45.350Z,74.10
2022-08-24T15:18:40.614Z,74.40
2022-08-24T15:21:37.749Z,74.30
2022-08-24T15:24:27.253Z,74.50
2022-08-24T15:27:11.943Z,72.10
2022-08-24T15:29:54.210Z,72.60
2022-08-24T15:32:41.501Z,72.40
2022-08-24T15:35:30.215Z,72.50
2022-08-24T15:38:19.638Z,71.50
2022-08-24T15:43:43.274Z,70.50
2022-08-24T15:46:32.584Z,71.60
2022-08-24T15:49:10.286Z,71.70
2022-08-24T15:51:50.015Z,73.70
2022-08-24T15:54:42.581Z,75.00
2022-08-24T15:57:32.366Z,73.60
2022-08-24T16:00:44.414Z,72.50
2022-08-24T16:03:29.139Z,72.10
2022-08-24T16:06:20.749Z,72.40
2022-08-24T16:09:06.385Z,73.40
2022-08-24T16:11:47.507Z,73.90
2022-08-24T16:14:47.338Z,74.10
2022-08-24T16:17:30.602Z,73.60
2022-08-24T16:20:08.567Z,74.30
2022-08-24T16:22:44.037Z,74.40
2022-08-24T16:25:42.908Z,74.80
2022-08-24T16:28:39.721Z,75.30
2022-08-24T16:31:55.303Z,75.20
2022-08-24T16:34:39.893Z,75.50
2022-08-24T16:37:39.277Z,77.30
2022-08-24T16:40:17.741Z,77.00
2022-08-24T16:43:01.000Z,76.00
2022-08-24T16:45:46.231Z,76.00
2022-08-24T16:48:23.421Z,77.30
2022-08-24T16:51:22.222Z,77.90
2022-08-24T16:53:56.778Z,76.60
2022-08-24T16:56:38.829Z,76.20
2022-08-24T16:59:17.186Z,76.50
2022-08-24T17:01:56.233Z,76.70
2022-08-24T17:04:31.875Z,77.30
2022-08-24T17:07:23.563Z,76.70
2022-08-24T17:10:03.159Z,77.20
2022-08-24T17:12:42.068Z,77.00
2022-08-24T17:15:18.894Z,77.00
2022-08-24T17:18:06.802Z,77.30
2022-08-24T17:20:49.723Z,77.50
2022-08-24T17:23:41.212Z,78.30
2022-08-24T17:26:21.809Z,78.20
2022-08-24T17:29:00.190Z,78.80
2022-08-24T17:31:36.933Z,80.10
2022-08-24T17:34:18.821Z,82.50
2022-08-24T17:36:53.492Z,83.10
2022-08-24T17:39:33.858Z,83.60
2022-08-24T17:42:39.996Z,84.60
2022-08-24T17:45:11.242Z,85.80
2022-08-24T17:47:47.374Z,86.90
2022-08-24T17:50:44.201Z,86.60
2022-08-24T17:53:22.400Z,87.30
2022-08-24T17:55:54.328Z,88.00
2022-08-24T17:58:28.880Z,89.00
2022-08-24T18:00:59.214Z,89.30
2022-08-24T18:03:59.630Z,89.90
2022-08-24T18:06:40.667Z,89.80
2022-08-24T18:09:28.901Z,89.80
2022-08-24T18:12:04.195Z,89.80
2022-08-24T18:14:34.925Z,88.10
2022-08-24T18:17:25.957Z,88.30
2022-08-24T18:20:06.964Z,86.60
2022-08-24T18:25:31.442Z,88.50
2022-08-24T18:28:11.874Z,87.00
2022-08-24T18:30:46.555Z,88.00
2022-08-24T18:33:20.447Z,86.60
2022-08-24T18:35:54.873Z,89.00
2022-08-24T18:38:32.447Z,89.60
2022-08-24T18:41:18.122Z,90.10
2022-08-24T18:44:08.523Z,90.40
2022-08-24T18:47:11.410Z,90.80
2022-08-24T18:49:47.410Z,91.60
2022-08-24T18:52:22.573Z,91.60
2022-08-24T18:54:57.782Z,91.90
2022-08-24T18:57:37.045Z,92.30
2022-08-24T19:00:14.912Z,92.30
2022-08-24T19:02:49.588Z,92.30
2022-08-24T19:05:26.471Z,92.50
2022-08-24T19:08:04.740Z,92.70
2022-08-24T19:10:39.894Z,93.10
2022-08-24T19:13:26.008Z,93.10
2022-08-24T19:16:17.702Z,93.00
2022-08-24T19:18:50.557Z,92.70
2022-08-24T19:21:26.223Z,92.90
2022-08-24T19:24:02.951Z,93.00
2022-08-24T19:26:46.556Z,93.00
2022-08-24T19:29:33.230Z,93.50
2022-08-24T19:32:36.188Z,93.60
2022-08-24T19:35:27.118Z,93.90
2022-08-24T19:38:03.356Z,94.40
2022-08-24T19:40:53.572Z,94.70
2022-08-24T19:43:59.111Z,95.00
2022-08-24T19:46:35.661Z,95.60
2022-08-24T19:49:19.445Z,96.10
2022-08-24T19:52:06.250Z,96.70
2022-08-24T19:54:44.719Z,97.70
2022-08-24T19:57:50.619Z,99.20
2022-08-24T20:00:48.079Z,99.90
2022-08-24T20:03:46.773Z,99.90
2022-08-24T20:06:30.014Z,99.90
2022-08-24T20:09:00.221Z,99.90
2022-08-24T20:11:30.349Z,99.90
2022-08-24T20:14:14.059Z,99.90
2022-08-24T20:16:54.467Z,99.90
2022-08-24T20:19:24.486Z,99.90
2022-08-24T20:22:03.495Z,99.90
2022-08-24T20:25:03.351Z,99.90
2022-08-24T20:27:58.094Z,99.90
2022-08-24T20:30:45.003Z,99.90
2022-08-24T20:33:35.682Z,99.90
2022-08-24T20:36:23.785Z,99.90
2022-08-24T20:38:59.165Z,99.90
2022-08-24T20:41:32.053Z,99.90
2022-08-24T20:44:12.654Z,99.90
2022-08-24T20:46:58.165Z,99.90
2022-08-24T20:49:35.945Z,99.90
2022-08-24T20:52:16.009Z,99.90
2022-08-24T20:54:46.665Z,99.90
2022-08-24T20:57:23.668Z,99.90
2022-08-24T20:59:59.061Z,99.90
2022-08-24T21:02:28.710Z,99.90
2022-08-24T21:04:59.716Z,99.90
2022-08-24T21:07:29.429Z,99.90
2022-08-24T21:10:06.413Z,99.90
2022-08-24T21:12:40.484Z,99.90
2022-08-24T21:15:30.295Z,99.90
2022-08-24T21:17:59.681Z,99.90
2022-08-24T21:20:33.047Z,99.90
2022-08-24T21:23:06.528Z,99.90
2022-08-24T21:25:36.692Z,99.90
2022-08-24T21:28:13.982Z,99.90
2022-08-24T21:30:46.613Z,99.90
2022-08-24T21:33:33.054Z,99.90
2022-08-24T21:36:13.095Z,99.90
2022-08-24T21:38:55.042Z,99.90
2022-08-24T21:41:29.706Z,99.90
2022-08-24T21:44:03.596Z,99.90
2022-08-24T21:46:39.118Z,99.90
2022-08-24T21:49:14.954Z,99.90
2022-08-24T21:51:56.597Z,99.90
2022-08-24T21:54:43.525Z,99.90
2022-08-24T21:57:13.642Z,99.90
2022-08-24T21:59:50.845Z,99.90
2022-08-24T22:02:22.722Z,99.90
2022-08-24T22:04:56.062Z,99.90
2022-08-24T22:07:28.451Z,99.90
2022-08-24T22:09:59.853Z,99.90
2022-08-24T22:12:30.958Z,99.90
2022-08-24T22:15:06.176Z,99.90
2022-08-24T22:17:52.441Z,99.90
2022-08-24T22:20:25.665Z,99.90
2022-08-24T22:22:58.653Z,99.90
2022-08-24T22:25:29.631Z,99.90
2022-08-24T22:28:04.093Z,99.90
2022-08-24T22:30:38.403Z,99.90
2022-08-24T22:33:10.084Z,99.90
2022-08-24T22:35:45.206Z,99.90
2022-08-24T22:38:23.695Z,99.90
2022-08-24T22:40:59.169Z,99.90
2022-08-24T22:43:48.614Z,99.90
2022-08-24T22:46:26.677Z,99.90
2022-08-24T22:49:07.217Z,99.90
2022-08-24T22:51:42.985Z,99.90
2022-08-24T22:54:18.024Z,99.90
2022-08-24T22:56:49.239Z,99.90
2022-08-24T22:59:21.876Z,99.90
2022-08-24T23:01:53.478Z,99.90
2022-08-24T23:04:28.537Z,99.90
2022-08-24T23:07:01.046Z,99.90
2022-08-24T23:09:44.569Z,99.90
2022-08-24T23:12:19.598Z,99.90
2022-08-24T23:14:51.780Z,99.90
2022-08-24T23:17:25.007Z,99.90
2022-08-24T23:20:06.657Z,99.90
2022-08-24T23:22:38.848Z,99.90
2022-08-24T23:25:16.061Z,99.90
2022-08-24T23:27:50.133Z,99.90
2022-08-24T23:30:22.024Z,99.90
2022-08-24T23:32:56.542Z,99.90
2022-08-24T23:35:27.313Z,99.90
2022-08-24T23:37:56.707Z,99.90
2022-08-24T23:40:30.469Z,99.90
2022-08-24T23:42:59.722Z,99.90
2022-08-24T23:45:30.571Z,99.90
2022-08-24T23:48:02.834Z,99.90
2022-08-24T23:50:38.015Z,99.90
2022-08-24T23:53:11.605Z,99.90
2022-08-24T23:55:43.524Z,99.90
2022-08-24T23:58:20.970Z,99.90
